Time;durP1;ratioP1;P1;durP2;ratioP2;P2;SDS_P1;SDS_P2;PMS_P1;PMS_P2;Temp;Humidity;BMP_temperature;BMP_pressure;BME280_temperature;BME280_humidity;BME280_pressure;Samples;Min_cycle;Max_cycle;Signal;HPM_P1;HPM_P2
2021/11/21 00:02:06;;;;;;;21.43;13.33;;;8.90;99.90;;;;;;6156825;23;20159;-78
2021/11/21 00:04:32;;;;;;;20.90;13.20;;;8.90;99.90;;;;;;6156100;23;20163;-81
2021/11/21 00:06:58;;;;;;;18.23;12.53;;;8.90;99.90;;;;;;6156724;23;20166;-79
2021/11/21 00:09:23;;;;;;;19.17;12.27;;;8.80;99.90;;;;;;6155417;23;20216;-77
2021/11/21 00:14:24;;;;;;;21.80;13.80;;;8.80;99.90;;;;;;6191198;22;20644;-79
2021/11/21 00:16:56;;;;;;;17.73;12.23;;;8.80;99.90;;;;;;6179760;23;20161;-79
2021/11/21 00:19:22;;;;;;;20.80;12.53;;;8.70;99.90;;;;;;6206504;23;20524;-80
2021/11/21 00:21:47;;;;;;;19.63;13.13;;;8.70;99.90;;;;;;6180126;23;20162;-80
2021/11/21 00:24:14;;;;;;;22.30;13.23;;;8.80;99.90;;;;;;6179727;23;20185;-78
2021/11/21 00:26:39;;;;;;;22.67;13.67;;;8.80;99.90;;;;;;6205836;23;20166;-77
2021/11/21 00:29:05;;;;;;;22.80;13.93;;;8.70;99.90;;;;;;6179491;23;20212;-78
2021/11/21 00:31:30;;;;;;;21.27;13.03;;;8.80;99.90;;;;;;6205665;23;20154;-80
2021/11/21 00:33:56;;;;;;;22.07;13.67;;;8.70;99.90;;;;;;6179440;23;20213;-79
2021/11/21 00:36:22;;;;;;;19.97;12.97;;;8.70;99.90;;;;;;6179629;23;20160;-79
2021/11/21 00:38:47;;;;;;;18.77;12.73;;;8.70;99.90;;;;;;6206337;23;20151;-79
2021/11/21 00:41:13;;;;;;;22.37;13.70;;;8.70;99.90;;;;;;6180413;23;20159;-79
2021/11/21 00:43:39;;;;;;;21.57;12.93;;;8.70;99.90;;;;;;6208796;23;20233;-79
2021/11/21 00:46:04;;;;;;;22.33;13.90;;;8.60;99.90;;;;;;6209626;23;20610;-79
2021/11/21 00:48:31;;;;;;;19.63;12.57;;;8.60;99.90;;;;;;6182823;23;20551;-78
2021/11/21 00:51:00;;;;;;;20.97;13.37;;;8.70;99.90;;;;;;6183557;23;20162;-81
2021/11/21 00:53:26;;;;;;;21.67;12.80;;;8.60;99.90;;;;;;6182443;23;20197;-78
2021/11/21 00:56:02;;;;;;;21.73;13.47;;;8.60;99.90;;;;;;6182936;23;20244;-79
2021/11/21 00:58:28;;;;;;;19.60;12.63;;;8.70;99.90;;;;;;6183018;23;20157;-78
2021/11/21 01:00:54;;;;;;;20.10;12.60;;;8.60;99.90;;;;;;6182833;23;20595;-79
2021/11/21 01:03:22;;;;;;;21.47;12.80;;;8.60;99.90;;;;;;6209300;23;20209;-78
2021/11/21 01:05:49;;;;;;;19.27;12.27;;;8.60;99.90;;;;;;6182947;23;20166;-78
2021/11/21 01:08:15;;;;;;;18.83;12.00;;;8.60;99.90;;;;;;6182701;23;20777;-80
2021/11/21 01:10:42;;;;;;;19.97;12.20;;;8.60;99.90;;;;;;6182568;23;20629;-79
2021/11/21 01:13:09;;;;;;;20.90;12.53;;;8.60;99.90;;;;;;6208943;23;20519;-81
2021/11/21 01:15:35;;;;;;;17.70;11.37;;;8.60;99.90;;;;;;6182060;23;20260;-81
2021/11/21 01:18:01;;;;;;;19.73;11.90;;;8.60;99.90;;;;;;6182406;23;20232;-80
2021/11/21 01:20:29;;;;;;;19.37;11.27;;;8.60;99.90;;;;;;6182010;23;20245;-77
2021/11/21 01:22:56;;;;;;;20.03;12.13;;;8.60;99.90;;;;;;6208335;23;20170;-77
2021/11/21 01:25:22;;;;;;;19.20;11.97;;;8.50;99.90;;;;;;6182482;23;20213;-79
2021/11/21 01:27:48;;;;;;;17.80;11.47;;;8.50;99.90;;;;;;6182244;23;20166;-77
2021/11/21 01:30:17;;;;;;;17.00;10.70;;;8.50;99.90;;;;;;6209509;23;20158;-77
2021/11/21 01:32:43;;;;;;;17.47;10.43;;;8.50;99.90;;;;;;6182039;23;20286;-77
2021/11/21 01:35:10;;;;;;;18.90;11.77;;;8.50;99.90;;;;;;6182277;23;20217;-82
2021/11/21 01:37:36;;;;;;;16.73;10.40;;;8.50;99.90;;;;;;6182470;23;20158;-79
2021/11/21 01:40:02;;;;;;;15.90;9.93;;;8.50;99.90;;;;;;6208803;23;20208;-80
2021/11/21 01:42:28;;;;;;;16.03;9.83;;;8.50;99.90;;;;;;6208472;23;20147;-79
2021/11/21 01:44:54;;;;;;;17.17;10.50;;;8.40;99.90;;;;;;6182472;23;20182;-78
2021/11/21 01:47:20;;;;;;;17.60;10.07;;;8.50;99.90;;;;;;6182027;23;20158;-81
2021/11/21 01:49:46;;;;;;;15.87;10.17;;;8.50;99.90;;;;;;6181631;23;20161;-79
2021/11/21 01:52:11;;;;;;;17.13;10.30;;;8.50;99.90;;;;;;6182469;23;20162;-78
2021/11/21 01:54:37;;;;;;;19.17;10.93;;;8.50;99.90;;;;;;6208584;23;20216;-78
2021/11/21 01:57:03;;;;;;;15.50;9.73;;;8.40;99.90;;;;;;6208825;23;20157;-80
2021/11/21 01:59:30;;;;;;;15.70;10.00;;;8.50;99.90;;;;;;6208576;23;20176;-79
2021/11/21 02:01:55;;;;;;;15.97;9.93;;;8.50;99.90;;;;;;6208910;23;20166;-77
2021/11/21 02:04:21;;;;;;;15.97;10.33;;;8.50;99.90;;;;;;6182199;23;20189;-80
2021/11/21 02:06:47;;;;;;;16.80;10.00;;;8.40;99.90;;;;;;6209204;23;20744;-78
2021/11/21 02:09:13;;;;;;;15.20;9.97;;;8.50;99.90;;;;;;6181883;23;20176;-81
2021/11/21 02:11:39;;;;;;;15.37;9.83;;;8.50;99.90;;;;;;6181479;23;20162;-80
2021/11/21 02:14:05;;;;;;;13.23;8.60;;;8.50;99.90;;;;;;6181300;23;20201;-76
2021/11/21 02:16:32;;;;;;;15.67;9.27;;;8.50;99.90;;;;;;6182025;23;20153;-78
2021/11/21 02:18:59;;;;;;;12.67;8.20;;;8.40;99.90;;;;;;6208910;23;20288;-81
2021/11/21 02:21:25;;;;;;;14.90;9.37;;;8.50;99.90;;;;;;6182391;23;20166;-79
2021/11/21 02:23:51;;;;;;;14.60;8.80;;;8.40;99.90;;;;;;6208348;23;20175;-79
2021/11/21 02:26:18;;;;;;;13.40;8.67;;;8.40;99.90;;;;;;6182020;23;20169;-79
2021/11/21 02:28:49;;;;;;;13.63;9.07;;;8.40;99.90;;;;;;6208960;23;20191;-80
2021/11/21 02:31:16;;;;;;;17.03;8.90;;;8.50;99.90;;;;;;6182168;23;20510;-82
2021/11/21 02:33:43;;;;;;;16.40;9.57;;;8.40;99.90;;;;;;6180981;23;20276;-82
2021/11/21 02:36:09;;;;;;;15.30;8.87;;;8.50;99.90;;;;;;6208575;23;20174;-78
2021/11/21 02:38:36;;;;;;;15.13;8.93;;;8.40;99.90;;;;;;6181643;23;20158;-77
2021/11/21 02:41:05;;;;;;;13.17;8.57;;;8.40;99.90;;;;;;6183082;23;20663;-80
2021/11/21 02:43:31;;;;;;;15.10;9.43;;;8.40;99.90;;;;;;6183489;23;20720;-79
2021/11/21 02:45:57;;;;;;;14.43;8.60;;;8.40;99.90;;;;;;6183798;23;20162;-80
2021/11/21 02:48:26;;;;;;;15.17;9.07;;;8.40;99.90;;;;;;6183549;23;20161;-79
2021/11/21 02:50:52;;;;;;;17.73;9.37;;;8.40;99.90;;;;;;6183894;23;20194;-79
2021/11/21 02:53:21;;;;;;;14.50;9.40;;;8.40;99.90;;;;;;6183109;23;20507;-77
2021/11/21 02:55:50;;;;;;;14.70;9.53;;;8.40;99.90;;;;;;6183232;23;20314;-81
2021/11/21 02:58:15;;;;;;;15.27;8.97;;;8.40;99.90;;;;;;6210037;23;20151;-79
2021/11/21 03:00:41;;;;;;;15.97;9.13;;;8.40;99.90;;;;;;6183215;23;20237;-78
2021/11/21 03:03:07;;;;;;;13.93;9.43;;;8.30;99.90;;;;;;6208992;23;20162;-80
2021/11/21 03:05:34;;;;;;;15.17;9.30;;;8.30;99.90;;;;;;6209418;23;20609;-80
2021/11/21 03:08:00;;;;;;;16.63;10.43;;;8.30;99.90;;;;;;6209385;23;20233;-78
2021/11/21 03:10:27;;;;;;;14.80;8.77;;;8.30;99.90;;;;;;6209595;23;20860;-77
2021/11/21 03:12:56;;;;;;;15.07;9.50;;;8.30;99.90;;;;;;6183379;23;21087;-81
2021/11/21 03:15:23;;;;;;;16.57;9.87;;;8.30;99.90;;;;;;6183555;23;20194;-78
2021/11/21 03:17:49;;;;;;;15.20;9.60;;;8.30;99.90;;;;;;6210520;23;20550;-79
2021/11/21 03:20:18;;;;;;;16.23;9.33;;;8.30;99.90;;;;;;6183444;23;20228;-77
2021/11/21 03:22:44;;;;;;;14.93;9.70;;;8.40;99.90;;;;;;6183578;23;20172;-78
2021/11/21 03:25:11;;;;;;;14.47;9.53;;;8.30;99.90;;;;;;6184109;23;20234;-79
2021/11/21 03:27:37;;;;;;;16.17;8.90;;;8.40;99.90;;;;;;6210624;23;20598;-78
2021/11/21 03:30:09;;;;;;;15.20;8.73;;;8.40;99.90;;;;;;6183878;23;20166;-77
2021/11/21 03:32:35;;;;;;;15.37;9.23;;;8.30;99.90;;;;;;6183657;23;20155;-80
2021/11/21 03:35:01;;;;;;;13.37;8.73;;;8.30;99.90;;;;;;6210792;23;20585;-79
2021/11/21 03:37:28;;;;;;;12.83;8.43;;;8.30;99.90;;;;;;6183455;23;21048;-79
2021/11/21 03:39:54;;;;;;;16.23;9.60;;;8.30;99.90;;;;;;6184024;23;20158;-80
2021/11/21 03:42:19;;;;;;;14.93;8.90;;;8.30;99.90;;;;;;6183559;23;20212;-78
2021/11/21 03:44:45;;;;;;;14.50;9.30;;;8.30;99.90;;;;;;6210376;23;20480;-79
2021/11/21 03:47:11;;;;;;;14.10;8.60;;;8.20;99.90;;;;;;6210656;23;20162;-79
2021/11/21 03:49:37;;;;;;;14.07;9.10;;;8.30;99.90;;;;;;6183620;23;20166;-80
2021/11/21 03:52:03;;;;;;;14.90;10.20;;;8.20;99.90;;;;;;6210162;23;20181;-80
2021/11/21 03:54:29;;;;;;;15.40;9.50;;;8.20;99.90;;;;;;6209272;23;20547;-78
2021/11/21 03:56:55;;;;;;;15.37;10.27;;;8.20;99.90;;;;;;6210431;23;20229;-78
2021/11/21 03:59:20;;;;;;;16.67;9.93;;;8.20;99.90;;;;;;6182978;23;20946;-78
2021/11/21 04:01:48;;;;;;;19.03;9.93;;;8.20;99.90;;;;;;6183235;23;20677;-80
2021/11/21 04:04:13;;;;;;;15.30;10.27;;;8.10;99.90;;;;;;6209325;23;20178;-79
2021/11/21 04:06:39;;;;;;;14.00;8.67;;;8.20;99.90;;;;;;6182741;23;20215;-79
2021/11/21 04:09:06;;;;;;;14.63;9.63;;;8.20;99.90;;;;;;6209679;23;20154;-77
2021/11/21 04:11:32;;;;;;;14.73;9.40;;;8.20;99.90;;;;;;6182716;23;20162;-81
2021/11/21 04:13:59;;;;;;;16.30;9.70;;;8.20;99.90;;;;;;6182534;23;20209;-78
2021/11/21 04:16:25;;;;;;;15.33;10.07;;;8.10;99.90;;;;;;6209912;23;20612;-80
2021/11/21 04:18:51;;;;;;;16.37;10.00;;;8.10;99.90;;;;;;6183877;23;20185;-78
2021/11/21 04:21:17;;;;;;;15.37;10.23;;;8.10;99.90;;;;;;6209376;23;20181;-80
2021/11/21 04:23:42;;;;;;;15.77;10.03;;;8.10;99.90;;;;;;6182231;23;20178;-78
2021/11/21 04:26:08;;;;;;;16.77;9.97;;;8.20;99.90;;;;;;6183045;23;20602;-77
2021/11/21 04:28:34;;;;;;;16.10;9.43;;;8.20;99.90;;;;;;6209327;23;20154;-79
2021/11/21 04:30:59;;;;;;;14.33;9.00;;;8.20;99.90;;;;;;6183095;23;20739;-79
2021/11/21 04:33:25;;;;;;;14.93;9.63;;;8.10;99.90;;;;;;6209048;23;20193;-80
2021/11/21 04:35:51;;;;;;;17.17;10.63;;;8.10;99.90;;;;;;6210159;23;20185;-78
2021/11/21 04:38:17;;;;;;;15.83;9.70;;;8.10;99.90;;;;;;6209998;23;20717;-78
2021/11/21 04:40:44;;;;;;;16.00;9.50;;;8.10;99.90;;;;;;6209712;23;20173;-79
2021/11/21 04:43:11;;;;;;;16.67;9.37;;;8.10;99.90;;;;;;6209744;23;20220;-80
2021/11/21 04:45:37;;;;;;;18.03;10.17;;;8.10;99.90;;;;;;6209863;23;20606;-77
2021/11/21 04:48:03;;;;;;;17.43;10.93;;;8.10;99.90;;;;;;6183900;23;20166;-78
2021/11/21 04:50:29;;;;;;;15.63;9.30;;;8.10;99.90;;;;;;6209231;23;20212;-79
2021/11/21 04:52:54;;;;;;;14.30;9.67;;;8.20;99.90;;;;;;6209406;23;20538;-79
2021/11/21 04:55:20;;;;;;;16.07;9.73;;;8.10;99.90;;;;;;6183175;23;20258;-78
2021/11/21 04:57:46;;;;;;;15.20;9.43;;;8.10;99.90;;;;;;6182867;23;20205;-79
2021/11/21 05:00:16;;;;;;;15.70;9.77;;;8.10;99.90;;;;;;6209320;23;20233;-78
2021/11/21 05:02:43;;;;;;;15.33;9.67;;;8.00;99.90;;;;;;6209587;23;20150;-79
2021/11/21 05:05:09;;;;;;;15.40;10.40;;;8.00;99.90;;;;;;6183126;23;20654;-79
2021/11/21 05:07:35;;;;;;;18.90;11.03;;;8.00;99.90;;;;;;6182716;23;20166;-79
2021/11/21 05:10:02;;;;;;;17.17;10.13;;;8.00;99.90;;;;;;6209733;23;20182;-80
2021/11/21 05:12:28;;;;;;;17.77;10.40;;;8.00;99.90;;;;;;6182774;23;20186;-77
2021/11/21 05:14:55;;;;;;;15.57;9.60;;;7.90;99.90;;;;;;6209683;23;20189;-77
2021/11/21 05:17:21;;;;;;;17.73;10.47;;;8.00;99.90;;;;;;6182675;23;20162;-77
2021/11/21 05:19:46;;;;;;;17.07;9.57;;;8.00;99.90;;;;;;6211453;23;20225;-80
2021/11/21 05:22:12;;;;;;;17.10;9.80;;;8.00;99.90;;;;;;6183114;23;20248;-78
2021/11/21 05:24:37;;;;;;;16.07;10.37;;;7.90;99.90;;;;;;6182281;23;20630;-80
2021/11/21 05:27:03;;;;;;;15.63;9.73;;;7.90;99.90;;;;;;6183360;23;20243;-78
2021/11/21 05:29:29;;;;;;;18.03;10.63;;;7.90;99.90;;;;;;6209152;23;20616;-78
2021/11/21 05:31:54;;;;;;;14.67;9.77;;;7.80;99.90;;;;;;6209332;23;20154;-78
2021/11/21 05:34:20;;;;;;;16.50;10.43;;;7.90;99.90;;;;;;6181950;23;20254;-78
2021/11/21 05:36:45;;;;;;;17.23;10.00;;;7.90;99.90;;;;;;6209359;23;20149;-80
2021/11/21 05:39:13;;;;;;;16.10;10.33;;;7.90;99.90;;;;;;6182210;23;20249;-77
2021/11/21 05:41:39;;;;;;;14.63;9.77;;;7.90;99.90;;;;;;6209114;23;20236;-78
2021/11/21 05:44:05;;;;;;;16.70;9.93;;;7.90;99.90;;;;;;6209687;23;20174;-78
2021/11/21 05:46:31;;;;;;;15.67;9.40;;;7.90;99.90;;;;;;6208692;23;20155;-80
2021/11/21 05:48:57;;;;;;;16.37;11.07;;;7.90;99.90;;;;;;6209107;23;20667;-80
2021/11/21 05:51:22;;;;;;;16.03;9.73;;;7.90;99.90;;;;;;6182156;23;20625;-77
2021/11/21 05:53:48;;;;;;;17.33;10.97;;;7.90;99.90;;;;;;6181535;23;20582;-78
2021/11/21 05:56:14;;;;;;;17.53;9.37;;;7.80;99.90;;;;;;6181663;23;20193;-79
2021/11/21 05:58:39;;;;;;;17.60;9.83;;;7.90;99.90;;;;;;6182140;23;20189;-82
2021/11/21 06:01:05;;;;;;;14.80;9.23;;;7.90;99.90;;;;;;6181731;23;20158;-79
2021/11/21 06:03:30;;;;;;;17.47;11.37;;;7.90;99.90;;;;;;6181788;23;20182;-80
2021/11/21 06:05:56;;;;;;;15.47;9.50;;;7.90;99.90;;;;;;6182504;23;20161;-77
2021/11/21 06:08:23;;;;;;;15.83;9.70;;;7.90;99.90;;;;;;6208839;23;20916;-79
2021/11/21 06:10:48;;;;;;;16.13;9.50;;;7.90;99.90;;;;;;6181540;23;20746;-78
2021/11/21 06:13:14;;;;;;;16.20;9.67;;;7.80;99.90;;;;;;6207415;23;20173;-80
2021/11/21 06:15:40;;;;;;;14.53;9.37;;;7.90;99.90;;;;;;6181442;23;20272;-79
2021/11/21 06:18:05;;;;;;;15.23;9.40;;;7.90;99.90;;;;;;6208126;23;20157;-79
2021/11/21 06:20:31;;;;;;;17.03;9.93;;;7.90;99.90;;;;;;6181534;23;20185;-81
2021/11/21 06:22:57;;;;;;;17.30;10.97;;;7.90;99.90;;;;;;6180917;23;20641;-77
2021/11/21 06:25:23;;;;;;;15.83;9.67;;;7.80;99.90;;;;;;6208708;23;20174;-80
2021/11/21 06:27:49;;;;;;;14.27;8.87;;;7.80;99.90;;;;;;6208283;23;20233;-78
2021/11/21 06:30:14;;;;;;;15.57;9.30;;;7.80;99.90;;;;;;6180985;23;20236;-76
2021/11/21 06:32:40;;;;;;;14.97;9.87;;;7.90;99.90;;;;;;6207865;23;20146;-80
2021/11/21 06:35:07;;;;;;;14.63;9.43;;;7.80;99.90;;;;;;6207206;23;20745;-77
2021/11/21 06:37:34;;;;;;;15.37;9.33;;;7.80;99.90;;;;;;6180721;23;20208;-77
2021/11/21 06:40:00;;;;;;;14.10;9.07;;;7.90;99.90;;;;;;6207801;23;20164;-80
2021/11/21 06:42:25;;;;;;;14.07;9.07;;;7.90;99.90;;;;;;6181355;23;20158;-77
2021/11/21 06:44:51;;;;;;;14.27;9.27;;;7.80;99.90;;;;;;6209214;23;20173;-78
2021/11/21 06:47:18;;;;;;;14.93;9.03;;;7.90;99.90;;;;;;6209189;23;20602;-80
2021/11/21 06:49:45;;;;;;;16.40;8.97;;;7.90;99.90;;;;;;6183260;23;20162;-77
2021/11/21 06:52:11;;;;;;;15.10;9.20;;;7.90;99.90;;;;;;6181770;23;20189;-80
2021/11/21 06:54:36;;;;;;;14.27;8.80;;;7.90;99.90;;;;;;6181834;23;20645;-77
2021/11/21 06:57:03;;;;;;;15.13;9.33;;;7.90;99.90;;;;;;6209145;23;20483;-77
2021/11/21 06:59:28;;;;;;;13.17;8.73;;;7.90;99.90;;;;;;6181878;23;20182;-79
2021/11/21 07:01:54;;;;;;;13.33;8.53;;;7.90;99.90;;;;;;6209011;23;20255;-78
2021/11/21 07:04:20;;;;;;;15.93;9.23;;;7.90;99.90;;;;;;6182065;23;20186;-78
2021/11/21 07:06:46;;;;;;;12.60;8.67;;;7.90;99.90;;;;;;6183153;23;20162;-81
2021/11/21 07:09:14;;;;;;;13.30;8.47;;;8.00;99.90;;;;;;6183128;23;20602;-77
2021/11/21 07:11:42;;;;;;;13.07;8.10;;;8.00;99.90;;;;;;6182691;23;20162;-80
2021/11/21 07:14:11;;;;;;;13.23;8.37;;;8.00;99.90;;;;;;6178609;23;20205;-76
2021/11/21 07:16:37;;;;;;;13.47;8.20;;;8.00;99.90;;;;;;6210175;23;20158;-79
2021/11/21 07:19:02;;;;;;;10.77;7.40;;;8.10;99.90;;;;;;6211086;23;20937;-78
2021/11/21 07:21:28;;;;;;;11.67;7.50;;;8.00;99.90;;;;;;6181712;23;20300;-79
2021/11/21 07:23:54;;;;;;;11.97;7.77;;;8.00;99.90;;;;;;6208219;23;20205;-77
2021/11/21 07:26:19;;;;;;;12.30;7.97;;;8.00;99.90;;;;;;6183250;23;20332;-77
2021/11/21 07:28:45;;;;;;;11.03;7.50;;;8.00;99.90;;;;;;6184792;23;20151;-77
2021/11/21 07:31:11;;;;;;;12.90;8.13;;;8.00;99.90;;;;;;6184712;23;20173;-80
2021/11/21 07:33:37;;;;;;;9.37;7.27;;;8.10;99.90;;;;;;6211589;23;20182;-79
2021/11/21 07:36:04;;;;;;;12.30;7.70;;;8.10;99.90;;;;;;6185174;23;20160;-78
2021/11/21 07:38:31;;;;;;;10.37;7.40;;;8.10;99.90;;;;;;6184574;23;20261;-80
2021/11/21 07:40:57;;;;;;;13.90;8.17;;;8.20;99.90;;;;;;6183689;23;20590;-77
2021/11/21 07:43:23;;;;;;;11.50;7.93;;;8.20;99.90;;;;;;6209850;23;20598;-78
2021/11/21 07:45:51;;;;;;;11.00;7.53;;;8.20;99.90;;;;;;6227779;23;20145;-78
2021/11/21 07:48:17;;;;;;;13.03;7.83;;;8.20;99.90;;;;;;6203140;23;20162;-80
2021/11/21 07:50:43;;;;;;;10.57;7.30;;;8.20;99.90;;;;;;6212477;23;20594;-82
2021/11/21 07:53:09;;;;;;;10.73;6.97;;;8.20;99.90;;;;;;6186243;23;20182;-80
2021/11/21 07:55:35;;;;;;;11.60;6.73;;;8.10;99.90;;;;;;6185232;23;20158;-79
2021/11/21 07:58:00;;;;;;;11.33;7.10;;;8.10;99.90;;;;;;6185062;23;20150;-80
2021/11/21 08:00:26;;;;;;;11.00;7.33;;;8.10;99.90;;;;;;6222011;23;20150;-79
2021/11/21 08:02:52;;;;;;;10.40;7.43;;;8.10;99.90;;;;;;6203002;23;20166;-80
2021/11/21 08:05:17;;;;;;;12.33;7.23;;;8.10;99.90;;;;;;6217461;23;20186;-79
2021/11/21 08:07:44;;;;;;;9.10;6.53;;;8.10;99.90;;;;;;6185380;23;20174;-80
2021/11/21 08:10:11;;;;;;;11.00;7.33;;;8.20;99.90;;;;;;6186111;23;20190;-81
2021/11/21 08:12:37;;;;;;;10.13;6.37;;;8.20;99.90;;;;;;6186163;23;20162;-80
2021/11/21 08:15:03;;;;;;;11.80;7.50;;;8.20;99.90;;;;;;6185867;23;20193;-80
2021/11/21 08:17:29;;;;;;;10.83;7.20;;;8.20;99.90;;;;;;6212860;23;20150;-80
2021/11/21 08:19:54;;;;;;;10.47;6.83;;;8.20;99.90;;;;;;6185883;23;20155;-81
2021/11/21 08:22:20;;;;;;;10.03;6.80;;;8.20;99.90;;;;;;6185809;23;20158;-80
2021/11/21 08:24:46;;;;;;;9.27;6.07;;;8.20;99.90;;;;;;6185738;23;20244;-81
2021/11/21 08:27:12;;;;;;;7.37;5.70;;;8.10;99.90;;;;;;6212369;23;20189;-83
2021/11/21 08:29:38;;;;;;;10.00;6.90;;;8.20;99.90;;;;;;6185454;23;20170;-78
2021/11/21 08:32:04;;;;;;;9.33;6.40;;;8.10;99.90;;;;;;6210806;23;20230;-82
2021/11/21 08:34:30;;;;;;;9.70;6.50;;;8.10;99.90;;;;;;6184342;23;20317;-83
2021/11/21 08:36:56;;;;;;;9.63;6.37;;;8.10;99.90;;;;;;6184270;23;20186;-82
2021/11/21 08:39:22;;;;;;;8.23;5.70;;;8.10;99.90;;;;;;6211360;23;20182;-83
2021/11/21 08:41:49;;;;;;;9.03;5.93;;;8.20;99.90;;;;;;6211269;23;20150;-83
2021/11/21 08:44:15;;;;;;;8.37;5.57;;;8.20;99.90;;;;;;6210456;23;20224;-82
2021/11/21 08:46:41;;;;;;;8.90;6.20;;;8.10;99.90;;;;;;6212106;23;20163;-80
2021/11/21 08:49:06;;;;;;;8.83;6.03;;;8.10;99.90;;;;;;6209439;23;20736;-80
2021/11/21 08:51:32;;;;;;;9.27;5.83;;;8.10;99.90;;;;;;6183832;23;20154;-80
2021/11/21 08:53:57;;;;;;;7.33;5.30;;;8.20;99.90;;;;;;6184324;23;20272;-80
2021/11/21 08:56:24;;;;;;;7.53;5.30;;;8.20;99.90;;;;;;6209518;23;20155;-80
2021/11/21 08:58:50;;;;;;;8.07;5.47;;;8.10;99.90;;;;;;6208225;23;20162;-80
2021/11/21 09:01:16;;;;;;;7.40;5.57;;;8.20;99.90;;;;;;6183271;23;20632;-82
2021/11/21 09:03:41;;;;;;;8.27;5.40;;;8.20;99.90;;;;;;6210138;23;20522;-81
2021/11/21 09:06:08;;;;;;;7.87;5.43;;;8.10;99.90;;;;;;6210168;23;20155;-79
2021/11/21 09:08:33;;;;;;;7.80;5.27;;;8.20;99.90;;;;;;6184078;23;20177;-80
2021/11/21 09:10:59;;;;;;;8.43;5.77;;;8.30;99.90;;;;;;6210901;23;20147;-82
2021/11/21 09:13:27;;;;;;;8.00;5.53;;;8.30;99.90;;;;;;6208430;23;20237;-80
2021/11/21 09:15:53;;;;;;;9.77;6.67;;;8.40;99.90;;;;;;6207473;23;20161;-80
2021/11/21 09:18:24;;;;;;;8.43;6.77;;;8.40;99.90;;;;;;6182212;23;20666;-80
2021/11/21 09:20:50;;;;;;;9.40;6.23;;;8.40;99.90;;;;;;6208865;23;20484;-79
2021/11/21 09:23:18;;;;;;;9.77;6.50;;;8.50;99.90;;;;;;6208097;23;20205;-80
2021/11/21 09:25:44;;;;;;;8.47;6.30;;;8.50;99.90;;;;;;6183271;23;20169;-82
2021/11/21 09:28:10;;;;;;;8.80;6.27;;;8.60;99.90;;;;;;6209113;23;20158;-82
2021/11/21 09:30:35;;;;;;;11.17;6.87;;;8.60;99.90;;;;;;6182736;23;20169;-80
2021/11/21 09:33:01;;;;;;;9.53;6.07;;;8.60;99.90;;;;;;6182506;23;20506;-81
2021/11/21 09:35:26;;;;;;;9.43;6.83;;;8.60;99.90;;;;;;6209390;23;20514;-82
2021/11/21 09:37:53;;;;;;;10.33;6.80;;;8.60;99.90;;;;;;6183759;23;20158;-82
2021/11/21 09:40:18;;;;;;;10.90;7.17;;;8.70;99.90;;;;;;6182830;23;20197;-82
2021/11/21 09:42:46;;;;;;;7.67;5.90;;;8.70;99.90;;;;;;6207625;23;20147;-79
2021/11/21 09:45:13;;;;;;;9.27;6.40;;;8.70;99.90;;;;;;6181372;23;20178;-81
2021/11/21 09:47:39;;;;;;;9.40;6.70;;;8.80;99.90;;;;;;6182291;23;20151;-82
2021/11/21 09:50:08;;;;;;;9.87;6.70;;;8.90;99.90;;;;;;6208619;23;20157;-80
2021/11/21 09:52:35;;;;;;;10.30;6.80;;;8.80;99.90;;;;;;6180474;23;20154;-80
2021/11/21 09:55:02;;;;;;;9.03;6.50;;;8.90;99.90;;;;;;6206279;23;20186;-80
2021/11/21 09:57:30;;;;;;;7.97;6.07;;;8.90;99.90;;;;;;6179375;23;20216;-80
2021/11/21 10:00:00;;;;;;;8.63;6.30;;;8.90;99.90;;;;;;6179874;23;20159;-78
2021/11/21 10:02:32;;;;;;;7.93;5.67;;;8.80;99.90;;;;;;6180956;23;20164;-79
2021/11/21 10:05:03;;;;;;;8.63;5.57;;;8.80;99.90;;;;;;6208256;23;20177;-81
2021/11/21 10:07:34;;;;;;;7.13;5.07;;;8.80;99.90;;;;;;6181156;23;20162;-80
2021/11/21 10:10:04;;;;;;;6.60;4.80;;;8.90;99.90;;;;;;6181432;23;20162;-80
2021/11/21 10:12:36;;;;;;;5.80;4.40;;;8.90;99.90;;;;;;6180426;23;20158;-80
2021/11/21 10:15:07;;;;;;;6.77;4.13;;;8.80;99.90;;;;;;6180187;23;20202;-80
2021/11/21 10:17:33;;;;;;;5.20;4.53;;;8.70;99.90;;;;;;6176771;23;20158;-81
2021/11/21 10:20:19;;;;;;;6.50;4.30;;;8.70;99.90;;;;;;6181294;23;20169;-82
2021/11/21 10:22:55;;;;;;;6.90;4.70;;;8.70;99.90;;;;;;6181065;23;20262;-80
2021/11/21 10:25:33;;;;;;;5.57;4.30;;;8.70;99.90;;;;;;6180137;23;20182;-78
2021/11/21 10:28:14;;;;;;;5.60;3.63;;;8.80;99.90;;;;;;6179965;23;20480;-79
2021/11/21 10:31:01;;;;;;;5.30;3.53;;;8.80;99.90;;;;;;6179182;23;20198;-80
2021/11/21 10:33:31;;;;;;;4.17;3.50;;;8.80;99.90;;;;;;6206198;23;20196;-79
2021/11/21 10:36:00;;;;;;;3.73;3.13;;;8.90;99.90;;;;;;6180650;23;20154;-78
2021/11/21 10:38:38;;;;;;;3.37;2.67;;;9.00;99.90;;;;;;6180432;23;20165;-79
2021/11/21 10:41:29;;;;;;;3.80;2.37;;;9.10;99.90;;;;;;6207208;23;20209;-79
2021/11/21 10:44:03;;;;;;;4.90;3.40;;;9.20;99.90;;;;;;6180267;23;20183;-81
2021/11/21 10:46:47;;;;;;;3.93;2.30;;;9.30;99.90;;;;;;6181114;23;20681;-81
2021/11/21 10:49:15;;;;;;;2.93;2.10;;;9.50;99.90;;;;;;6181054;23;20166;-80
2021/11/21 10:51:42;;;;;;;4.70;2.47;;;9.70;99.90;;;;;;6177920;23;20162;-81
2021/11/21 10:54:24;;;;;;;4.57;2.67;;;9.80;99.90;;;;;;6181586;23;20217;-81
2021/11/21 10:56:53;;;;;;;2.37;1.80;;;9.90;99.90;;;;;;6181477;23;20165;-78
2021/11/21 10:59:41;;;;;;;2.40;1.53;;;9.90;99.90;;;;;;6180517;23;20165;-81
2021/11/21 11:02:22;;;;;;;1.40;1.30;;;10.00;99.90;;;;;;6209078;23;20189;-79
2021/11/21 11:05:20;;;;;;;2.87;1.13;;;9.90;99.90;;;;;;6209783;23;20178;-80
2021/11/21 11:07:56;;;;;;;1.07;0.83;;;9.90;99.90;;;;;;6210070;23;20154;-81
2021/11/21 11:10:24;;;;;;;1.77;1.10;;;9.80;99.90;;;;;;6182785;23;20192;-81
2021/11/21 11:13:03;;;;;;;2.50;1.20;;;9.80;99.90;;;;;;6181373;23;20529;-82
2021/11/21 11:15:33;;;;;;;2.07;1.57;;;9.90;99.90;;;;;;6178503;23;20198;-80
2021/11/21 11:17:58;;;;;;;2.10;1.40;;;9.90;99.90;;;;;;6182183;23;20628;-81
2021/11/21 11:20:25;;;;;;;2.33;1.40;;;10.00;99.90;;;;;;6181751;23;20166;-85
2021/11/21 11:22:51;;;;;;;2.37;1.93;;;10.10;99.90;;;;;;6181180;23;20960;-83
2021/11/21 11:25:24;;;;;;;2.40;1.97;;;10.10;99.90;;;;;;6181375;23;20178;-83
2021/11/21 11:27:57;;;;;;;2.40;2.20;;;10.00;99.90;;;;;;6208277;23;20146;-82
2021/11/21 11:30:32;;;;;;;3.03;2.57;;;10.00;99.90;;;;;;6180488;23;20150;-83
2021/11/21 11:33:25;;;;;;;3.00;2.50;;;9.80;99.90;;;;;;6180839;23;20154;-84
2021/11/21 11:35:56;;;;;;;3.33;3.03;;;9.70;99.90;;;;;;6175620;23;20610;-82
2021/11/21 11:38:30;;;;;;;3.87;3.00;;;9.50;99.90;;;;;;6181827;23;20164;-83
2021/11/21 11:41:01;;;;;;;4.07;3.67;;;9.40;99.90;;;;;;6180997;23;20186;-80
2021/11/21 11:43:42;;;;;;;4.73;3.30;;;9.40;99.90;;;;;;6208700;23;20173;-80
2021/11/21 11:46:23;;;;;;;3.37;2.90;;;9.50;99.90;;;;;;6209113;23;20157;-82
2021/11/21 11:48:52;;;;;;;3.70;3.03;;;9.60;99.90;;;;;;6181966;23;20170;-82
2021/11/21 11:51:22;;;;;;;3.50;3.10;;;9.70;99.90;;;;;;6187058;23;20609;-80
2021/11/21 11:53:53;;;;;;;5.40;3.40;;;9.80;99.90;;;;;;6188413;23;20601;-77
2021/11/21 11:56:40;;;;;;;5.17;3.40;;;9.90;99.90;;;;;;6188903;23;20245;-77
2021/11/21 11:59:09;;;;;;;3.40;2.80;;;9.90;99.90;;;;;;6188773;23;20155;-79
2021/11/21 12:01:38;;;;;;;3.43;2.60;;;10.00;99.90;;;;;;6187408;23;20249;-81
2021/11/21 12:04:06;;;;;;;3.60;2.60;;;9.90;99.90;;;;;;6214725;23;20185;-80
2021/11/21 12:06:36;;;;;;;4.53;2.67;;;9.80;99.90;;;;;;6189952;23;20885;-81
2021/11/21 12:09:27;;;;;;;3.83;2.80;;;9.90;99.90;;;;;;6190363;23;20259;-80
2021/11/21 12:12:02;;;;;;;4.53;2.53;;;9.80;99.90;;;;;;6215975;23;20237;-81
2021/11/21 12:14:31;;;;;;;3.50;2.60;;;9.80;99.90;;;;;;6189343;23;20198;-80
2021/11/21 12:17:01;;;;;;;4.20;3.07;;;9.80;99.90;;;;;;6214076;23;20153;-81
2021/11/21 12:19:50;;;;;;;3.03;2.67;;;9.80;99.90;;;;;;6189218;23;20598;-78
2021/11/21 12:22:34;;;;;;;4.03;2.63;;;9.80;99.90;;;;;;6188070;23;20507;-78
2021/11/21 12:25:07;;;;;;;5.00;2.90;;;9.90;99.90;;;;;;6210861;23;20174;-79
2021/11/21 12:27:44;;;;;;;4.27;2.80;;;9.80;99.90;;;;;;6210768;23;20143;-80
2021/11/21 12:30:18;;;;;;;3.73;2.53;;;9.80;99.90;;;;;;6210237;23;20576;-81
2021/11/21 12:32:49;;;;;;;3.63;2.40;;;9.70;99.90;;;;;;6210435;23;20138;-80
2021/11/21 12:35:30;;;;;;;3.83;2.70;;;9.70;99.90;;;;;;6183090;23;20178;-78
2021/11/21 12:37:57;;;;;;;4.47;2.83;;;9.70;99.90;;;;;;6183310;23;20165;-79
2021/11/21 12:40:45;;;;;;;4.27;2.90;;;9.70;99.90;;;;;;6209829;23;20201;-81
2021/11/21 12:43:16;;;;;;;2.97;2.40;;;9.70;99.90;;;;;;6209398;23;20134;-78
2021/11/21 12:46:05;;;;;;;3.07;2.70;;;9.70;99.90;;;;;;6183347;23;20166;-81
2021/11/21 12:48:31;;;;;;;3.97;3.00;;;9.80;99.90;;;;;;6209964;23;20272;-79
2021/11/21 12:51:03;;;;;;;3.50;3.13;;;9.80;99.90;;;;;;6182465;23;20162;-81
2021/11/21 12:53:37;;;;;;;5.40;3.17;;;9.80;99.90;;;;;;6182221;23;20248;-78
2021/11/21 12:56:08;;;;;;;4.67;2.93;;;9.90;99.90;;;;;;6210186;23;20210;-79